sensor_id;sensor_type;location;lat;lon;timestamp;pressure;altitude;pressure_sealevel;temperature;humidity
18014;BME280;9132;47.946;10.394;2023-11-22T00:02:01;94156.41;;;5.75;100.00
18014;BME280;9132;47.946;10.394;2023-11-22T00:04:28;94153.44;;;5.78;100.00
18014;BME280;9132;47.946;10.394;2023-11-22T00:06:54;94150.66;;;5.80;100.00
18014;BME280;9132;47.946;10.394;2023-11-22T00:09:21;94152.63;;;5.78;100.00
18014;BME280;9132;47.946;10.394;2023-11-22T00:11:50;94156.25;;;5.77;100.00
18014;BME280;9132;47.946;10.394;2023-11-22T00:14:16;94150.16;;;5.76;100.00
18014;BME280;9132;47.946;10.394;2023-11-22T00:16:44;94148.88;;;5.72;100.00
18014;BME280;9132;47.946;10.394;2023-11-22T00:19:11;94148.38;;;5.69;100.00
18014;BME280;9132;47.946;10.394;2023-11-22T00:21:38;94150.34;;;5.67;100.00
18014;BME280;9132;47.946;10.394;2023-11-22T00:24:05;94156.38;;;5.67;100.00
18014;BME280;9132;47.946;10.394;2023-11-22T00:26:33;94151.81;;;5.69;100.00
18014;BME280;9132;47.946;10.394;2023-11-22T00:29:00;94149.88;;;5.71;100.00
18014;BME280;9132;47.946;10.394;2023-11-22T00:31:28;94160.16;;;5.73;100.00
18014;BME280;9132;47.946;10.394;2023-11-22T00:33:56;94162.63;;;5.74;100.00
18014;BME280;9132;47.946;10.394;2023-11-22T00:36:25;94161.63;;;5.75;100.00
18014;BME280;9132;47.946;10.394;2023-11-22T00:38:52;94160.16;;;5.73;100.00
18014;BME280;9132;47.946;10.394;2023-11-22T00:41:18;94157.88;;;5.70;100.00
18014;BME280;9132;47.946;10.394;2023-11-22T00:43:45;94151.00;;;5.69;100.00
18014;BME280;9132;47.946;10.394;2023-11-22T00:46:12;94160.31;;;5.63;100.00
18014;BME280;9132;47.946;10.394;2023-11-22T00:48:39;94153.47;;;5.62;100.00
18014;BME280;9132;47.946;10.394;2023-11-22T00:51:08;94164.25;;;5.59;100.00
18014;BME280;9132;47.946;10.394;2023-11-22T00:53:36;94161.47;;;5.61;100.00
18014;BME280;9132;47.946;10.394;2023-11-22T00:56:03;94160.19;;;5.65;100.00
18014;BME280;9132;47.946;10.394;2023-11-22T00:58:31;94160.00;;;5.66;100.00
18014;BME280;9132;47.946;10.394;2023-11-22T01:00:57;94165.91;;;5.68;100.00
18014;BME280;9132;47.946;10.394;2023-11-22T01:03:24;94168.34;;;5.70;100.00
18014;BME280;9132;47.946;10.394;2023-11-22T01:05:51;94169.00;;;5.72;100.00
18014;BME280;9132;47.946;10.394;2023-11-22T01:08:20;94168.81;;;5.73;100.00
18014;BME280;9132;47.946;10.394;2023-11-22T01:10:47;94167.69;;;5.76;100.00
18014;BME280;9132;47.946;10.394;2023-11-22T01:13:14;94175.22;;;5.79;100.00
18014;BME280;9132;47.946;10.394;2023-11-22T01:15:40;94160.66;;;5.76;100.00
18014;BME280;9132;47.946;10.394;2023-11-22T01:18:08;94168.34;;;5.70;100.00
18014;BME280;9132;47.946;10.394;2023-11-22T01:20:36;94169.66;;;5.66;100.00
18014;BME280;9132;47.946;10.394;2023-11-22T01:23:03;94173.72;;;5.60;100.00
18014;BME280;9132;47.946;10.394;2023-11-22T01:25:30;94170.31;;;5.60;100.00
18014;BME280;9132;47.946;10.394;2023-11-22T01:27:57;94174.22;;;5.64;100.00
18014;BME280;9132;47.946;10.394;2023-11-22T01:30:26;94171.13;;;5.68;100.00
18014;BME280;9132;47.946;10.394;2023-11-22T01:32:54;94175.69;;;5.66;100.00
18014;BME280;9132;47.946;10.394;2023-11-22T01:35:21;94173.91;;;5.58;100.00
18014;BME280;9132;47.946;10.394;2023-11-22T01:37:48;94182.91;;;5.56;100.00
18014;BME280;9132;47.946;10.394;2023-11-22T01:40:15;94189.63;;;5.58;100.00
18014;BME280;9132;47.946;10.394;2023-11-22T01:42:47;94186.00;;;5.60;100.00
18014;BME280;9132;47.946;10.394;2023-11-22T01:45:13;94177.00;;;5.62;100.00
18014;BME280;9132;47.946;10.394;2023-11-22T01:47:41;94189.63;;;5.58;100.00
18014;BME280;9132;47.946;10.394;2023-11-22T01:50:09;94185.66;;;5.54;100.00
18014;BME280;9132;47.946;10.394;2023-11-22T01:52:36;94185.03;;;5.52;100.00
18014;BME280;9132;47.946;10.394;2023-11-22T01:55:03;94194.50;;;5.53;100.00
18014;BME280;9132;47.946;10.394;2023-11-22T01:57:30;94196.97;;;5.55;100.00
18014;BME280;9132;47.946;10.394;2023-11-22T02:00:01;94193.03;;;5.59;100.00
18014;BME280;9132;47.946;10.394;2023-11-22T02:02:29;94197.47;;;5.58;100.00
18014;BME280;9132;47.946;10.394;2023-11-22T02:04:56;94195.50;;;5.52;100.00
18014;BME280;9132;47.946;10.394;2023-11-22T02:07:23;94194.81;;;5.50;100.00
18014;BME280;9132;47.946;10.394;2023-11-22T02:09:49;94198.56;;;5.48;100.00
18014;BME280;9132;47.946;10.394;2023-11-22T02:12:17;94202.19;;;5.47;100.00
18014;BME280;9132;47.946;10.394;2023-11-22T02:14:45;94196.63;;;5.50;100.00
18014;BME280;9132;47.946;10.394;2023-11-22T02:17:14;94202.81;;;5.41;100.00
18014;BME280;9132;47.946;10.394;2023-11-22T02:19:43;94202.34;;;5.37;100.00
18014;BME280;9132;47.946;10.394;2023-11-22T02:22:09;94199.41;;;5.40;100.00
18014;BME280;9132;47.946;10.394;2023-11-22T02:24:38;94205.13;;;5.44;100.00
18014;BME280;9132;47.946;10.394;2023-11-22T02:27:05;94211.34;;;5.43;100.00
18014;BME280;9132;47.946;10.394;2023-11-22T02:29:34;94208.56;;;5.44;100.00
18014;BME280;9132;47.946;10.394;2023-11-22T02:32:00;94208.72;;;5.43;100.00
18014;BME280;9132;47.946;10.394;2023-11-22T02:34:27;94215.91;;;5.41;100.00
18014;BME280;9132;47.946;10.394;2023-11-22T02:36:54;94214.59;;;5.45;100.00
18014;BME280;9132;47.946;10.394;2023-11-22T02:39:20;94216.91;;;5.48;100.00
18014;BME280;9132;47.946;10.394;2023-11-22T02:41:51;94218.22;;;5.52;100.00
18014;BME280;9132;47.946;10.394;2023-11-22T02:44:18;94214.63;;;5.53;100.00
18014;BME280;9132;47.946;10.394;2023-11-22T02:46:45;94214.44;;;5.54;100.00
18014;BME280;9132;47.946;10.394;2023-11-22T02:49:11;94214.13;;;5.57;100.00
18014;BME280;9132;47.946;10.394;2023-11-22T02:51:38;94219.69;;;5.54;100.00
18014;BME280;9132;47.946;10.394;2023-11-22T02:54:06;94217.25;;;5.53;100.00
18014;BME280;9132;47.946;10.394;2023-11-22T02:56:33;94219.69;;;5.54;100.00
18014;BME280;9132;47.946;10.394;2023-11-22T02:59:01;94216.91;;;5.56;100.00
18014;BME280;9132;47.946;10.394;2023-11-22T03:01:28;94219.03;;;5.52;100.00
18014;BME280;9132;47.946;10.394;2023-11-22T03:03:55;94211.66;;;5.48;100.00
18014;BME280;9132;47.946;10.394;2023-11-22T03:06:24;94220.31;;;5.48;100.00
18014;BME280;9132;47.946;10.394;2023-11-22T03:08:53;94218.88;;;5.46;100.00
18014;BME280;9132;47.946;10.394;2023-11-22T03:11:20;94226.88;;;5.44;100.00
18014;BME280;9132;47.946;10.394;2023-11-22T03:13:47;94220.31;;;5.48;100.00
18014;BME280;9132;47.946;10.394;2023-11-22T03:16:16;94223.47;;;5.52;100.00
18014;BME280;9132;47.946;10.394;2023-11-22T03:18:43;94222.78;;;5.50;100.00
18014;BME280;9132;47.946;10.394;2023-11-22T03:21:10;94232.13;;;5.52;100.00
18014;BME280;9132;47.946;10.394;2023-11-22T03:23:38;94233.09;;;5.51;100.00
18014;BME280;9132;47.946;10.394;2023-11-22T03:26:06;94229.84;;;5.49;100.00
18014;BME280;9132;47.946;10.394;2023-11-22T03:28:33;94243.06;;;5.48;100.00
18014;BME280;9132;47.946;10.394;2023-11-22T03:30:59;94243.25;;;5.46;100.00
18014;BME280;9132;47.946;10.394;2023-11-22T03:33:30;94249.28;;;5.47;100.00
18014;BME280;9132;47.946;10.394;2023-11-22T03:35:57;94246.81;;;5.37;100.00
18014;BME280;9132;47.946;10.394;2023-11-22T03:38:24;94248.44;;;5.30;100.00
18014;BME280;9132;47.946;10.394;2023-11-22T03:40:51;94252.97;;;5.20;100.00
18014;BME280;9132;47.946;10.394;2023-11-22T03:43:19;94265.84;;;5.13;100.00
18014;BME280;9132;47.946;10.394;2023-11-22T03:45:47;94268.59;;;5.03;100.00
18014;BME280;9132;47.946;10.394;2023-11-22T03:48:16;94262.97;;;4.90;100.00
18014;BME280;9132;47.946;10.394;2023-11-22T03:50:44;94256.75;;;4.83;100.00
18014;BME280;9132;47.946;10.394;2023-11-22T03:53:11;94276.00;;;4.82;100.00
18014;BME280;9132;47.946;10.394;2023-11-22T03:55:38;94273.00;;;4.69;100.00
18014;BME280;9132;47.946;10.394;2023-11-22T03:58:05;94278.13;;;4.52;100.00
18014;BME280;9132;47.946;10.394;2023-11-22T04:00:31;94285.59;;;4.47;100.00
18014;BME280;9132;47.946;10.394;2023-11-22T04:02:58;94286.81;;;4.35;100.00
18014;BME280;9132;47.946;10.394;2023-11-22T04:05:26;94290.59;;;4.14;100.00
18014;BME280;9132;47.946;10.394;2023-11-22T04:07:55;94292.41;;;4.14;100.00
18014;BME280;9132;47.946;10.394;2023-11-22T04:10:23;94296.94;;;4.12;100.00
18014;BME280;9132;47.946;10.394;2023-11-22T04:12:50;94305.06;;;4.09;100.00
18014;BME280;9132;47.946;10.394;2023-11-22T04:15:18;94305.38;;;4.06;100.00
18014;BME280;9132;47.946;10.394;2023-11-22T04:17:46;94304.63;;;3.95;100.00
18014;BME280;9132;47.946;10.394;2023-11-22T04:20:14;94307.31;;;3.86;100.00
18014;BME280;9132;47.946;10.394;2023-11-22T04:22:41;94312.75;;;3.75;100.00
18014;BME280;9132;47.946;10.394;2023-11-22T04:25:11;94318.13;;;3.73;100.00
18014;BME280;9132;47.946;10.394;2023-11-22T04:27:39;94327.88;;;3.71;100.00
18014;BME280;9132;47.946;10.394;2023-11-22T04:30:06;94326.84;;;3.64;100.00
18014;BME280;9132;47.946;10.394;2023-11-22T04:32:38;94324.91;;;3.66;100.00
18014;BME280;9132;47.946;10.394;2023-11-22T04:35:06;94329.56;;;3.62;100.00
18014;BME280;9132;47.946;10.394;2023-11-22T04:37:33;94338.38;;;3.61;100.00
18014;BME280;9132;47.946;10.394;2023-11-22T04:40:00;94342.25;;;3.57;100.00
18014;BME280;9132;47.946;10.394;2023-11-22T04:42:31;94339.78;;;3.56;100.00
18014;BME280;9132;47.946;10.394;2023-11-22T04:44:57;94348.13;;;3.59;100.00
18014;BME280;9132;47.946;10.394;2023-11-22T04:47:24;94340.94;;;3.53;100.00
18014;BME280;9132;47.946;10.394;2023-11-22T04:49:51;94352.47;;;3.51;100.00
18014;BME280;9132;47.946;10.394;2023-11-22T04:52:18;94354.84;;;3.44;100.00
18014;BME280;9132;47.946;10.394;2023-11-22T04:54:44;94351.25;;;3.45;100.00
18014;BME280;9132;47.946;10.394;2023-11-22T04:57:11;94364.81;;;3.48;100.00
18014;BME280;9132;47.946;10.394;2023-11-22T04:59:39;94376.00;;;3.41;100.00
18014;BME280;9132;47.946;10.394;2023-11-22T05:02:06;94376.94;;;3.40;100.00
18014;BME280;9132;47.946;10.394;2023-11-22T05:04:32;94380.53;;;3.39;100.00
18014;BME280;9132;47.946;10.394;2023-11-22T05:06:59;94383.56;;;3.34;100.00
18014;BME280;9132;47.946;10.394;2023-11-22T05:09:26;94394.28;;;3.31;100.00
18014;BME280;9132;47.946;10.394;2023-11-22T05:11:53;94384.22;;;3.36;100.00
18014;BME280;9132;47.946;10.394;2023-11-22T05:14:19;94394.00;;;3.34;100.00
18014;BME280;9132;47.946;10.394;2023-11-22T05:16:47;94393.69;;;3.37;100.00
18014;BME280;9132;47.946;10.394;2023-11-22T05:19:14;94398.78;;;3.39;100.00
18014;BME280;9132;47.946;10.394;2023-11-22T05:21:41;94403.16;;;3.38;100.00
18014;BME280;9132;47.946;10.394;2023-11-22T05:24:08;94397.56;;;3.33;100.00
18014;BME280;9132;47.946;10.394;2023-11-22T05:26:35;94411.16;;;3.27;100.00
18014;BME280;9132;47.946;10.394;2023-11-22T05:29:03;94412.44;;;3.23;100.00
18014;BME280;9132;47.946;10.394;2023-11-22T05:31:30;94409.94;;;3.21;100.00
18014;BME280;9132;47.946;10.394;2023-11-22T05:33:58;94421.06;;;3.23;100.00
18014;BME280;9132;47.946;10.394;2023-11-22T05:36:25;94430.16;;;3.19;100.00
18014;BME280;9132;47.946;10.394;2023-11-22T05:38:51;94430.84;;;3.12;100.00
18014;BME280;9132;47.946;10.394;2023-11-22T05:41:18;94429.88;;;3.13;100.00
18014;BME280;9132;47.946;10.394;2023-11-22T05:43:44;94430.28;;;3.08;100.00
18014;BME280;9132;47.946;10.394;2023-11-22T05:46:11;94431.97;;;3.09;100.00
18014;BME280;9132;47.946;10.394;2023-11-22T05:48:38;94441.97;;;3.04;100.00
18014;BME280;9132;47.946;10.394;2023-11-22T05:51:08;94443.06;;;3.01;100.00
18014;BME280;9132;47.946;10.394;2023-11-22T05:53:35;94448.81;;;3.05;100.00
18014;BME280;9132;47.946;10.394;2023-11-22T05:56:02;94460.25;;;2.94;100.00
18014;BME280;9132;47.946;10.394;2023-11-22T05:58:29;94461.50;;;2.90;100.00
18014;BME280;9132;47.946;10.394;2023-11-22T06:00:56;94466.84;;;2.79;100.00
18014;BME280;9132;47.946;10.394;2023-11-22T06:03:23;94465.50;;;2.75;100.00
18014;BME280;9132;47.946;10.394;2023-11-22T06:05:49;94456.84;;;2.65;100.00
18014;BME280;9132;47.946;10.394;2023-11-22T06:08:17;94453.69;;;2.61;100.00
18014;BME280;9132;47.946;10.394;2023-11-22T06:10:45;94453.00;;;2.69;100.00
18014;BME280;9132;47.946;10.394;2023-11-22T06:13:12;94463.28;;;2.70;100.00
18014;BME280;9132;47.946;10.394;2023-11-22T06:15:40;94461.09;;;2.66;100.00
18014;BME280;9132;47.946;10.394;2023-11-22T06:18:07;94466.03;;;2.69;100.00
18014;BME280;9132;47.946;10.394;2023-11-22T06:20:34;94467.66;;;2.79;100.00
18014;BME280;9132;47.946;10.394;2023-11-22T06:23:01;94468.47;;;2.80;100.00
18014;BME280;9132;47.946;10.394;2023-11-22T06:25:29;94460.41;;;2.73;100.00
18014;BME280;9132;47.946;10.394;2023-11-22T06:27:55;94470.97;;;2.72;100.00
18014;BME280;9132;47.946;10.394;2023-11-22T06:30:23;94481.94;;;2.75;100.00
18014;BME280;9132;47.946;10.394;2023-11-22T06:32:50;94489.22;;;2.72;100.00
18014;BME280;9132;47.946;10.394;2023-11-22T06:35:17;94492.19;;;2.77;100.00
18014;BME280;9132;47.946;10.394;2023-11-22T06:37:44;94494.00;;;2.76;100.00
18014;BME280;9132;47.946;10.394;2023-11-22T06:40:11;94508.94;;;2.65;100.00
18014;BME280;9132;47.946;10.394;2023-11-22T06:42:40;94503.59;;;2.66;100.00
18014;BME280;9132;47.946;10.394;2023-11-22T06:45:07;94516.19;;;2.71;100.00
18014;BME280;9132;47.946;10.394;2023-11-22T06:47:35;94511.56;;;2.74;100.00
18014;BME280;9132;47.946;10.394;2023-11-22T06:50:02;94512.94;;;2.78;100.00
18014;BME280;9132;47.946;10.394;2023-11-22T06:52:34;94509.91;;;2.83;100.00
18014;BME280;9132;47.946;10.394;2023-11-22T06:55:01;94514.44;;;2.81;100.00
18014;BME280;9132;47.946;10.394;2023-11-22T06:57:27;94511.13;;;2.79;100.00
18014;BME280;9132;47.946;10.394;2023-11-22T06:59:55;94521.41;;;2.81;100.00
18014;BME280;9132;47.946;10.394;2023-11-22T07:02:22;94513.59;;;2.81;100.00
18014;BME280;9132;47.946;10.394;2023-11-22T07:04:49;94521.56;;;2.79;100.00
18014;BME280;9132;47.946;10.394;2023-11-22T07:07:16;94526.94;;;2.77;100.00
18014;BME280;9132;47.946;10.394;2023-11-22T07:09:42;94538.72;;;2.72;100.00
18014;BME280;9132;47.946;10.394;2023-11-22T07:12:09;94549.13;;;2.72;100.00
18014;BME280;9132;47.946;10.394;2023-11-22T07:14:36;94553.09;;;2.66;100.00
18014;BME280;9132;47.946;10.394;2023-11-22T07:17:04;94553.38;;;2.63;100.00
18014;BME280;9132;47.946;10.394;2023-11-22T07:19:32;94559.66;;;2.61;100.00
18014;BME280;9132;47.946;10.394;2023-11-22T07:21:59;94558.56;;;2.63;100.00
18014;BME280;9132;47.946;10.394;2023-11-22T07:24:29;94564.75;;;2.62;100.00
18014;BME280;9132;47.946;10.394;2023-11-22T07:26:59;94556.25;;;2.60;100.00
18014;BME280;9132;47.946;10.394;2023-11-22T07:29:26;94564.22;;;2.59;100.00
18014;BME280;9132;47.946;10.394;2023-11-22T07:31:54;94575.19;;;2.62;100.00
18014;BME280;9132;47.946;10.394;2023-11-22T07:34:23;94583.09;;;2.61;100.00
18014;BME280;9132;47.946;10.394;2023-11-22T07:36:49;94583.94;;;2.61;100.00
18014;BME280;9132;47.946;10.394;2023-11-22T07:39:16;94589.84;;;2.63;100.00
18014;BME280;9132;47.946;10.394;2023-11-22T07:41:45;94596.78;;;2.43;100.00
18014;BME280;9132;47.946;10.394;2023-11-22T07:44:14;94595.09;;;2.32;100.00
18014;BME280;9132;47.946;10.394;2023-11-22T07:46:42;94599.63;;;2.30;100.00
18014;BME280;9132;47.946;10.394;2023-11-22T07:49:09;94602.09;;;2.32;100.00
18014;BME280;9132;47.946;10.394;2023-11-22T07:51:37;94607.28;;;2.22;100.00
18014;BME280;9132;47.946;10.394;2023-11-22T07:54:04;94617.13;;;2.19;100.00
18014;BME280;9132;47.946;10.394;2023-11-22T07:56:31;94625.19;;;2.16;100.00
18014;BME280;9132;47.946;10.394;2023-11-22T07:58:58;94642.56;;;2.05;100.00
18014;BME280;9132;47.946;10.394;2023-11-22T08:01:24;94645.16;;;2.05;100.00
18014;BME280;9132;47.946;10.394;2023-11-22T08:03:51;94637.47;;;2.04;100.00
18014;BME280;9132;47.946;10.394;2023-11-22T08:06:18;94634.50;;;2.08;100.00
18014;BME280;9132;47.946;10.394;2023-11-22T08:08:47;94627.78;;;2.06;100.00
18014;BME280;9132;47.946;10.394;2023-11-22T08:11:14;94640.72;;;1.96;100.00
18014;BME280;9132;47.946;10.394;2023-11-22T08:13:41;94640.81;;;1.85;100.00
18014;BME280;9132;47.946;10.394;2023-11-22T08:16:10;94641.97;;;1.71;100.00
18014;BME280;9132;47.946;10.394;2023-11-22T08:18:39;94642.53;;;1.75;100.00
18014;BME280;9132;47.946;10.394;2023-11-22T08:21:08;94649.50;;;1.74;100.00
18014;BME280;9132;47.946;10.394;2023-11-22T08:23:35;94653.91;;;1.74;100.00
18014;BME280;9132;47.946;10.394;2023-11-22T08:26:03;94653.00;;;1.63;100.00
18014;BME280;9132;47.946;10.394;2023-11-22T08:28:31;94662.22;;;1.68;100.00
18014;BME280;9132;47.946;10.394;2023-11-22T08:30:57;94662.53;;;1.74;100.00
18014;BME280;9132;47.946;10.394;2023-11-22T08:33:24;94669.88;;;1.69;100.00
18014;BME280;9132;47.946;10.394;2023-11-22T08:35:51;94661.81;;;1.72;100.00
18014;BME280;9132;47.946;10.394;2023-11-22T08:38:25;94671.59;;;1.80;100.00
18014;BME280;9132;47.946;10.394;2023-11-22T08:40:51;94674.06;;;1.81;100.00
18014;BME280;9132;47.946;10.394;2023-11-22T08:43:19;94675.91;;;1.70;100.00
18014;BME280;9132;47.946;10.394;2023-11-22T08:45:49;94683.69;;;1.70;100.00
18014;BME280;9132;47.946;10.394;2023-11-22T08:48:15;94693.78;;;1.63;100.00
18014;BME280;9132;47.946;10.394;2023-11-22T08:50:42;94700.00;;;1.51;100.00
18014;BME280;9132;47.946;10.394;2023-11-22T08:53:09;94700.78;;;1.62;100.00
18014;BME280;9132;47.946;10.394;2023-11-22T08:55:38;94703.25;;;1.64;100.00
18014;BME280;9132;47.946;10.394;2023-11-22T08:58:05;94716.13;;;1.66;100.00
18014;BME280;9132;47.946;10.394;2023-11-22T09:00:34;94713.28;;;1.69;100.00
18014;BME280;9132;47.946;10.394;2023-11-22T09:03:02;94720.00;;;1.71;100.00
18014;BME280;9132;47.946;10.394;2023-11-22T09:05:29;94717.00;;;1.76;100.00
18014;BME280;9132;47.946;10.394;2023-11-22T09:07:56;94719.34;;;1.79;100.00
18014;BME280;9132;47.946;10.394;2023-11-22T09:10:25;94721.59;;;1.83;100.00
18014;BME280;9132;47.946;10.394;2023-11-22T09:12:52;94719.75;;;1.74;100.00
18014;BME280;9132;47.946;10.394;2023-11-22T09:15:19;94717.00;;;1.76;100.00
18014;BME280;9132;47.946;10.394;2023-11-22T09:17:52;94720.38;;;1.67;100.00
18014;BME280;9132;47.946;10.394;2023-11-22T09:20:20;94727.34;;;1.66;100.00
18014;BME280;9132;47.946;10.394;2023-11-22T09:22:50;94720.94;;;1.70;100.00
18014;BME280;9132;47.946;10.394;2023-11-22T09:25:19;94729.59;;;1.71;100.00
18014;BME280;9132;47.946;10.394;2023-11-22T09:27:46;94730.84;;;1.76;100.00
18014;BME280;9132;47.946;10.394;2023-11-22T09:30:14;94733.94;;;1.70;100.00
18014;BME280;9132;47.946;10.394;2023-11-22T09:32:58;94739.13;;;1.70;100.00
18014;BME280;9132;47.946;10.394;2023-11-22T09:35:25;94738.31;;;1.70;100.00
18014;BME280;9132;47.946;10.394;2023-11-22T09:37:54;94731.94;;;1.74;100.00
18014;BME280;9132;47.946;10.394;2023-11-22T09:40:21;94736.88;;;1.77;100.00
18014;BME280;9132;47.946;10.394;2023-11-22T09:42:48;94742.59;;;1.92;100.00
18014;BME280;9132;47.946;10.394;2023-11-22T09:45:16;94732.84;;;2.05;100.00
18014;BME280;9132;47.946;10.394;2023-11-22T09:47:43;94734.41;;;1.96;100.00
18014;BME280;9132;47.946;10.394;2023-11-22T09:50:18;94748.69;;;2.02;100.00
18014;BME280;9132;47.946;10.394;2023-11-22T09:52:47;94750.53;;;1.90;100.00
18014;BME280;9132;47.946;10.394;2023-11-22T09:55:16;94746.53;;;1.86;100.00
18014;BME280;9132;47.946;10.394;2023-11-22T09:57:43;94746.25;;;1.89;100.00
18014;BME280;9132;47.946;10.394;2023-11-22T10:00:11;94742.84;;;1.89;100.00
18014;BME280;9132;47.946;10.394;2023-11-22T10:02:39;94744.63;;;1.88;100.00
18014;BME280;9132;47.946;10.394;2023-11-22T10:05:07;94748.59;;;1.92;100.00
18014;BME280;9132;47.946;10.394;2023-11-22T10:07:36;94739.31;;;1.90;100.00
18014;BME280;9132;47.946;10.394;2023-11-22T10:10:04;94743.22;;;1.84;100.00
18014;BME280;9132;47.946;10.394;2023-11-22T10:12:33;94733.63;;;1.63;100.00
18014;BME280;9132;47.946;10.394;2023-11-22T10:15:20;94731.69;;;1.77;100.00
18014;BME280;9132;47.946;10.394;2023-11-22T10:17:53;94741.34;;;1.86;100.00
18014;BME280;9132;47.946;10.394;2023-11-22T10:20:22;94723.28;;;1.94;100.00
18014;BME280;9132;47.946;10.394;2023-11-22T10:22:52;94726.09;;;2.02;100.00
18014;BME280;9132;47.946;10.394;2023-11-22T10:25:19;94725.34;;;2.12;100.00
18014;BME280;9132;47.946;10.394;2023-11-22T10:27:50;94734.53;;;2.16;100.00
18014;BME280;9132;47.946;10.394;2023-11-22T10:30:17;94729.84;;;2.09;100.00
18014;BME280;9132;47.946;10.394;2023-11-22T10:32:45;94729.06;;;2.19;100.00
18014;BME280;9132;47.946;10.394;2023-11-22T10:35:12;94725.63;;;2.18;100.00
18014;BME280;9132;47.946;10.394;2023-11-22T10:37:42;94735.28;;;2.27;100.00
18014;BME280;9132;47.946;10.394;2023-11-22T10:40:13;94736.72;;;2.20;100.00
18014;BME280;9132;47.946;10.394;2023-11-22T10:42:41;94735.66;;;2.23;100.00
18014;BME280;9132;47.946;10.394;2023-11-22T10:45:09;94735.41;;;2.26;100.00
18014;BME280;9132;47.946;10.394;2023-11-22T10:47:37;94738.06;;;2.36;100.00
18014;BME280;9132;47.946;10.394;2023-11-22T10:50:07;94745.91;;;2.45;100.00
18014;BME280;9132;47.946;10.394;2023-11-22T10:52:36;94747.00;;;2.43;100.00
18014;BME280;9132;47.946;10.394;2023-11-22T10:55:07;94748.50;;;2.45;100.00
18014;BME280;9132;47.946;10.394;2023-11-22T10:57:40;94753.34;;;2.50;100.00
18014;BME280;9132;47.946;10.394;2023-11-22T11:00:11;94760.81;;;2.34;100.00
18014;BME280;9132;47.946;10.394;2023-11-22T11:02:41;94762.69;;;2.31;100.00
18014;BME280;9132;47.946;10.394;2023-11-22T11:05:11;94759.22;;;2.21;100.00
18014;BME280;9132;47.946;10.394;2023-11-22T11:07:47;94764.94;;;2.15;100.00
18014;BME280;9132;47.946;10.394;2023-11-22T11:10:15;94780.09;;;2.10;100.00
18014;BME280;9132;47.946;10.394;2023-11-22T11:12:44;94769.34;;;2.15;100.00
18014;BME280;9132;47.946;10.394;2023-11-22T11:15:11;94772.25;;;2.21;100.00
18014;BME280;9132;47.946;10.394;2023-11-22T11:17:38;94774.75;;;2.32;100.00
18014;BME280;9132;47.946;10.394;2023-11-22T11:20:06;94779.16;;;2.32;100.00
18014;BME280;9132;47.946;10.394;2023-11-22T11:22:35;94784.50;;;2.09;100.00
18014;BME280;9132;47.946;10.394;2023-11-22T11:25:04;94784.19;;;2.03;100.00
18014;BME280;9132;47.946;10.394;2023-11-22T11:27:33;94783.53;;;2.11;100.00
18014;BME280;9132;47.946;10.394;2023-11-22T11:30:02;94780.56;;;2.15;100.00
18014;BME280;9132;47.946;10.394;2023-11-22T11:32:50;94768.16;;;2.28;100.00
18014;BME280;9132;47.946;10.394;2023-11-22T11:35:17;94776.78;;;2.29;100.00
18014;BME280;9132;47.946;10.394;2023-11-22T11:37:59;94768.44;;;2.25;100.00
18014;BME280;9132;47.946;10.394;2023-11-22T11:40:31;94763.28;;;2.14;100.00
18014;BME280;9132;47.946;10.394;2023-11-22T11:42:59;94757.69;;;1.98;100.00
18014;BME280;9132;47.946;10.394;2023-11-22T11:45:28;94752.63;;;1.96;100.00
18014;BME280;9132;47.946;10.394;2023-11-22T11:47:56;94762.97;;;1.87;100.00
18014;BME280;9132;47.946;10.394;2023-11-22T11:50:22;94765.00;;;1.83;100.00
18014;BME280;9132;47.946;10.394;2023-11-22T11:52:49;94762.25;;;1.84;100.00
18014;BME280;9132;47.946;10.394;2023-11-22T11:55:16;94768.34;;;1.74;100.00
18014;BME280;9132;47.946;10.394;2023-11-22T11:57:42;94774.88;;;1.68;100.00
18014;BME280;9132;47.946;10.394;2023-11-22T12:00:13;94777.66;;;1.76;100.00
18014;BME280;9132;47.946;10.394;2023-11-22T12:02:41;94766.09;;;1.69;100.00
18014;BME280;9132;47.946;10.394;2023-11-22T12:05:08;94765.53;;;1.66;100.00
18014;BME280;9132;47.946;10.394;2023-11-22T12:07:35;94776.34;;;1.61;100.00
18014;BME280;9132;47.946;10.394;2023-11-22T12:10:02;94772.63;;;1.63;100.00
18014;BME280;9132;47.946;10.394;2023-11-22T12:12:29;94778.94;;;1.61;100.00
18014;BME280;9132;47.946;10.394;2023-11-22T12:14:56;94767.25;;;1.55;100.00
18014;BME280;9132;47.946;10.394;2023-11-22T12:17:23;94772.53;;;1.65;100.00
18014;BME280;9132;47.946;10.394;2023-11-22T12:19:52;94775.19;;;1.75;100.00
18014;BME280;9132;47.946;10.394;2023-11-22T12:22:18;94774.38;;;1.74;100.00
18014;BME280;9132;47.946;10.394;2023-11-22T12:24:46;94769.09;;;1.65;100.00
18014;BME280;9132;47.946;10.394;2023-11-22T12:27:13;94768.84;;;1.68;100.00
18014;BME280;9132;47.946;10.394;2023-11-22T12:29:39;94776.16;;;1.74;100.00
18014;BME280;9132;47.946;10.394;2023-11-22T12:32:07;94785.22;;;1.79;100.00
18014;BME280;9132;47.946;10.394;2023-11-22T12:34:35;94787.88;;;1.89;100.00
18014;BME280;9132;47.946;10.394;2023-11-22T12:37:03;94795.28;;;2.05;100.00
18014;BME280;9132;47.946;10.394;2023-11-22T12:39:29;94800.16;;;1.98;100.00
18014;BME280;9132;47.946;10.394;2023-11-22T12:41:57;94796.22;;;2.04;100.00
18014;BME280;9132;47.946;10.394;2023-11-22T12:44:24;94774.28;;;1.97;100.00
18014;BME280;9132;47.946;10.394;2023-11-22T12:46:51;94789.63;;;2.00;100.00
18014;BME280;9132;47.946;10.394;2023-11-22T12:49:23;94789.91;;;1.85;100.00
18014;BME280;9132;47.946;10.394;2023-11-22T12:51:50;94795.97;;;1.86;100.00
18014;BME280;9132;47.946;10.394;2023-11-22T12:54:19;94795.81;;;1.99;100.00
18014;BME280;9132;47.946;10.394;2023-11-22T12:56:47;94793.13;;;2.10;100.00
18014;BME280;9132;47.946;10.394;2023-11-22T12:59:15;94791.16;;;2.02;100.00
18014;BME280;9132;47.946;10.394;2023-11-22T13:01:42;94790.78;;;2.07;100.00
18014;BME280;9132;47.946;10.394;2023-11-22T13:04:08;94799.72;;;2.14;100.00